sensor_id;sensor_type;location;lat;lon;timestamp;P1;durP1;ratioP1;P2;durP2;ratioP2
35977;SDS011;22056;0.000;0.000;2023-09-19T00:01:42;1.63;;;0.98;;
35977;SDS011;22056;0.000;0.000;2023-09-19T00:04:11;1.20;;;0.88;;
35977;SDS011;22056;0.000;0.000;2023-09-19T00:06:38;1.92;;;0.63;;
35977;SDS011;22056;0.000;0.000;2023-09-19T00:09:04;1.02;;;0.70;;
35977;SDS011;22056;0.000;0.000;2023-09-19T00:11:35;1.33;;;0.57;;
35977;SDS011;22056;0.000;0.000;2023-09-19T00:14:01;1.55;;;0.77;;
35977;SDS011;22056;0.000;0.000;2023-09-19T00:16:27;2.70;;;0.70;;
35977;SDS011;22056;0.000;0.000;2023-09-19T00:18:53;4.00;;;1.10;;
35977;SDS011;22056;0.000;0.000;2023-09-19T00:21:20;1.40;;;0.60;;
35977;SDS011;22056;0.000;0.000;2023-09-19T00:23:47;0.95;;;0.60;;
35977;SDS011;22056;0.000;0.000;2023-09-19T00:26:14;1.50;;;0.60;;
35977;SDS011;22056;0.000;0.000;2023-09-19T00:28:40;1.48;;;0.70;;
35977;SDS011;22056;0.000;0.000;2023-09-19T00:31:09;3.10;;;0.70;;
35977;SDS011;22056;0.000;0.000;2023-09-19T00:33:35;1.42;;;0.70;;
35977;SDS011;22056;0.000;0.000;2023-09-19T00:36:01;0.88;;;0.70;;
35977;SDS011;22056;0.000;0.000;2023-09-19T00:38:30;1.90;;;0.70;;
35977;SDS011;22056;0.000;0.000;2023-09-19T00:40:57;1.52;;;0.65;;
35977;SDS011;22056;0.000;0.000;2023-09-19T00:43:26;1.20;;;0.70;;
35977;SDS011;22056;0.000;0.000;2023-09-19T00:45:53;1.13;;;0.60;;
35977;SDS011;22056;0.000;0.000;2023-09-19T00:48:22;1.10;;;0.63;;
35977;SDS011;22056;0.000;0.000;2023-09-19T00:50:49;0.90;;;0.70;;
35977;SDS011;22056;0.000;0.000;2023-09-19T00:53:19;1.45;;;0.50;;
35977;SDS011;22056;0.000;0.000;2023-09-19T00:55:45;0.95;;;0.57;;
35977;SDS011;22056;0.000;0.000;2023-09-19T00:58:12;2.05;;;0.60;;
35977;SDS011;22056;0.000;0.000;2023-09-19T01:00:38;0.80;;;0.50;;
35977;SDS011;22056;0.000;0.000;2023-09-19T01:03:07;3.80;;;0.65;;
35977;SDS011;22056;0.000;0.000;2023-09-19T01:05:34;1.35;;;0.52;;
35977;SDS011;22056;0.000;0.000;2023-09-19T01:08:01;1.33;;;0.70;;
35977;SDS011;22056;0.000;0.000;2023-09-19T01:10:27;1.13;;;0.52;;
35977;SDS011;22056;0.000;0.000;2023-09-19T01:13:04;0.90;;;0.60;;
35977;SDS011;22056;0.000;0.000;2023-09-19T01:20:45;0.82;;;0.50;;
35977;SDS011;22056;0.000;0.000;2023-09-19T01:26:06;0.63;;;0.50;;
35977;SDS011;22056;0.000;0.000;2023-09-19T01:31:06;0.70;;;0.50;;
35977;SDS011;22056;0.000;0.000;2023-09-19T01:36:24;0.60;;;0.52;;
35977;SDS011;22056;0.000;0.000;2023-09-19T01:38:51;0.75;;;0.60;;
35977;SDS011;22056;0.000;0.000;2023-09-19T01:41:26;0.75;;;0.50;;
35977;SDS011;22056;0.000;0.000;2023-09-19T01:43:56;0.77;;;0.40;;
35977;SDS011;22056;0.000;0.000;2023-09-19T01:46:25;1.13;;;0.70;;
35977;SDS011;22056;0.000;0.000;2023-09-19T01:54:09;1.25;;;0.60;;
35977;SDS011;22056;0.000;0.000;2023-09-19T01:57:22;1.25;;;0.50;;
35977;SDS011;22056;0.000;0.000;2023-09-19T01:59:31;1.13;;;0.50;;
35977;SDS011;22056;0.000;0.000;2023-09-19T02:02:00;1.50;;;0.75;;
35977;SDS011;22056;0.000;0.000;2023-09-19T02:04:26;1.27;;;0.55;;
35977;SDS011;22056;0.000;0.000;2023-09-19T02:06:53;0.50;;;0.43;;
35977;SDS011;22056;0.000;0.000;2023-09-19T02:09:19;0.82;;;0.50;;
35977;SDS011;22056;0.000;0.000;2023-09-19T02:11:45;0.60;;;0.50;;
35977;SDS011;22056;0.000;0.000;2023-09-19T02:14:11;1.05;;;0.77;;
35977;SDS011;22056;0.000;0.000;2023-09-19T02:16:37;1.08;;;0.50;;
35977;SDS011;22056;0.000;0.000;2023-09-19T02:19:03;0.90;;;0.50;;
35977;SDS011;22056;0.000;0.000;2023-09-19T02:21:31;1.35;;;0.50;;
35977;SDS011;22056;0.000;0.000;2023-09-19T02:23:57;0.93;;;0.50;;
35977;SDS011;22056;0.000;0.000;2023-09-19T02:26:24;0.85;;;0.45;;
35977;SDS011;22056;0.000;0.000;2023-09-19T02:28:50;1.23;;;0.50;;
35977;SDS011;22056;0.000;0.000;2023-09-19T02:31:18;0.98;;;0.47;;
35977;SDS011;22056;0.000;0.000;2023-09-19T02:33:44;0.63;;;0.50;;
35977;SDS011;22056;0.000;0.000;2023-09-19T02:36:11;1.08;;;0.57;;
35977;SDS011;22056;0.000;0.000;2023-09-19T02:38:39;0.63;;;0.50;;
35977;SDS011;22056;0.000;0.000;2023-09-19T02:41:05;0.57;;;0.40;;
35977;SDS011;22056;0.000;0.000;2023-09-19T02:43:32;0.57;;;0.50;;
35977;SDS011;22056;0.000;0.000;2023-09-19T02:45:58;0.80;;;0.40;;
35977;SDS011;22056;0.000;0.000;2023-09-19T02:48:24;2.28;;;0.60;;
35977;SDS011;22056;0.000;0.000;2023-09-19T02:50:50;1.20;;;0.70;;
35977;SDS011;22056;0.000;0.000;2023-09-19T02:53:17;0.60;;;0.50;;
35977;SDS011;22056;0.000;0.000;2023-09-19T02:55:44;1.45;;;0.60;;
35977;SDS011;22056;0.000;0.000;2023-09-19T02:58:11;0.30;;;0.30;;
35977;SDS011;22056;0.000;0.000;2023-09-19T03:00:37;2.20;;;0.55;;
35977;SDS011;22056;0.000;0.000;2023-09-19T03:03:03;0.82;;;0.57;;
35977;SDS011;22056;0.000;0.000;2023-09-19T03:05:31;0.70;;;0.50;;
35977;SDS011;22056;0.000;0.000;2023-09-19T03:07:58;0.57;;;0.40;;
35977;SDS011;22056;0.000;0.000;2023-09-19T03:10:26;0.40;;;0.40;;
35977;SDS011;22056;0.000;0.000;2023-09-19T03:12:53;1.42;;;0.63;;
35977;SDS011;22056;0.000;0.000;2023-09-19T03:15:19;0.73;;;0.50;;
35977;SDS011;22056;0.000;0.000;2023-09-19T03:17:46;0.82;;;0.50;;
35977;SDS011;22056;0.000;0.000;2023-09-19T03:20:12;0.85;;;0.60;;
35977;SDS011;22056;0.000;0.000;2023-09-19T03:22:39;0.40;;;0.40;;
35977;SDS011;22056;0.000;0.000;2023-09-19T03:25:05;1.08;;;0.50;;
35977;SDS011;22056;0.000;0.000;2023-09-19T03:27:36;0.80;;;0.45;;
35977;SDS011;22056;0.000;0.000;2023-09-19T03:30:03;0.70;;;0.50;;
35977;SDS011;22056;0.000;0.000;2023-09-19T03:32:33;1.10;;;0.55;;
35977;SDS011;22056;0.000;0.000;2023-09-19T03:34:59;0.98;;;0.70;;
35977;SDS011;22056;0.000;0.000;2023-09-19T03:37:26;0.65;;;0.40;;
35977;SDS011;22056;0.000;0.000;2023-09-19T03:39:52;0.50;;;0.47;;
35977;SDS011;22056;0.000;0.000;2023-09-19T03:42:18;1.30;;;0.65;;
35977;SDS011;22056;0.000;0.000;2023-09-19T03:44:50;0.55;;;0.50;;
35977;SDS011;22056;0.000;0.000;2023-09-19T03:47:17;0.77;;;0.57;;
35977;SDS011;22056;0.000;0.000;2023-09-19T03:49:44;0.70;;;0.50;;
35977;SDS011;22056;0.000;0.000;2023-09-19T03:52:10;0.60;;;0.50;;
35977;SDS011;22056;0.000;0.000;2023-09-19T03:54:36;1.05;;;0.52;;
35977;SDS011;22056;0.000;0.000;2023-09-19T03:57:02;0.90;;;0.50;;
35977;SDS011;22056;0.000;0.000;2023-09-19T03:59:29;1.10;;;0.70;;
35977;SDS011;22056;0.000;0.000;2023-09-19T04:01:55;1.60;;;0.60;;
35977;SDS011;22056;0.000;0.000;2023-09-19T04:04:23;0.82;;;0.50;;
35977;SDS011;22056;0.000;0.000;2023-09-19T04:06:52;1.02;;;0.50;;
35977;SDS011;22056;0.000;0.000;2023-09-19T04:09:19;1.10;;;0.52;;
35977;SDS011;22056;0.000;0.000;2023-09-19T04:11:45;0.50;;;0.43;;
35977;SDS011;22056;0.000;0.000;2023-09-19T04:14:11;0.90;;;0.50;;
35977;SDS011;22056;0.000;0.000;2023-09-19T04:16:37;1.05;;;0.50;;
35977;SDS011;22056;0.000;0.000;2023-09-19T04:19:04;0.85;;;0.50;;
35977;SDS011;22056;0.000;0.000;2023-09-19T04:21:30;2.08;;;0.40;;
35977;SDS011;22056;0.000;0.000;2023-09-19T04:23:57;0.82;;;0.40;;
35977;SDS011;22056;0.000;0.000;2023-09-19T04:26:23;0.85;;;0.60;;
35977;SDS011;22056;0.000;0.000;2023-09-19T04:28:51;0.90;;;0.50;;
35977;SDS011;22056;0.000;0.000;2023-09-19T04:31:17;0.77;;;0.40;;
35977;SDS011;22056;0.000;0.000;2023-09-19T04:33:44;2.00;;;0.50;;
35977;SDS011;22056;0.000;0.000;2023-09-19T04:36:10;1.77;;;0.40;;
35977;SDS011;22056;0.000;0.000;2023-09-19T04:38:38;1.17;;;0.55;;
35977;SDS011;22056;0.000;0.000;2023-09-19T04:41:05;1.20;;;0.50;;
35977;SDS011;22056;0.000;0.000;2023-09-19T04:43:31;0.93;;;0.40;;
35977;SDS011;22056;0.000;0.000;2023-09-19T04:45:57;1.48;;;0.50;;
35977;SDS011;22056;0.000;0.000;2023-09-19T04:48:25;0.50;;;0.43;;
35977;SDS011;22056;0.000;0.000;2023-09-19T04:50:51;1.27;;;0.43;;
35977;SDS011;22056;0.000;0.000;2023-09-19T04:53:18;1.95;;;0.60;;
35977;SDS011;22056;0.000;0.000;2023-09-19T04:55:50;1.67;;;0.50;;
35977;SDS011;22056;0.000;0.000;2023-09-19T04:58:18;1.08;;;0.70;;
35977;SDS011;22056;0.000;0.000;2023-09-19T05:00:45;1.33;;;0.40;;
35977;SDS011;22056;0.000;0.000;2023-09-19T05:03:11;1.08;;;0.60;;
35977;SDS011;22056;0.000;0.000;2023-09-19T05:05:37;1.98;;;0.80;;
35977;SDS011;22056;0.000;0.000;2023-09-19T05:08:06;0.60;;;0.40;;
35977;SDS011;22056;0.000;0.000;2023-09-19T05:10:34;1.63;;;0.50;;
35977;SDS011;22056;0.000;0.000;2023-09-19T05:13:03;1.58;;;0.50;;
35977;SDS011;22056;0.000;0.000;2023-09-19T05:15:30;0.88;;;0.50;;
35977;SDS011;22056;0.000;0.000;2023-09-19T05:17:56;1.40;;;0.40;;
35977;SDS011;22056;0.000;0.000;2023-09-19T05:20:22;0.80;;;0.50;;
35977;SDS011;22056;0.000;0.000;2023-09-19T05:23:06;0.80;;;0.50;;
35977;SDS011;22056;0.000;0.000;2023-09-19T05:25:34;1.33;;;0.50;;
35977;SDS011;22056;0.000;0.000;2023-09-19T05:28:07;1.85;;;0.40;;
35977;SDS011;22056;0.000;0.000;2023-09-19T05:30:34;1.30;;;0.60;;
35977;SDS011;22056;0.000;0.000;2023-09-19T05:33:04;0.65;;;0.50;;
35977;SDS011;22056;0.000;0.000;2023-09-19T05:35:30;1.75;;;0.50;;
35977;SDS011;22056;0.000;0.000;2023-09-19T05:37:57;1.58;;;0.65;;
35977;SDS011;22056;0.000;0.000;2023-09-19T05:40:23;1.00;;;0.60;;
35977;SDS011;22056;0.000;0.000;2023-09-19T05:42:50;1.33;;;0.63;;
35977;SDS011;22056;0.000;0.000;2023-09-19T05:45:16;1.40;;;0.70;;
35977;SDS011;22056;0.000;0.000;2023-09-19T05:47:47;1.70;;;0.70;;
35977;SDS011;22056;0.000;0.000;2023-09-19T05:50:14;2.25;;;0.63;;
35977;SDS011;22056;0.000;0.000;2023-09-19T05:52:41;1.33;;;0.52;;
35977;SDS011;22056;0.000;0.000;2023-09-19T05:55:11;1.25;;;0.63;;
35977;SDS011;22056;0.000;0.000;2023-09-19T05:57:37;1.58;;;0.52;;
35977;SDS011;22056;0.000;0.000;2023-09-19T06:00:05;1.10;;;0.60;;
35977;SDS011;22056;0.000;0.000;2023-09-19T06:02:36;1.10;;;0.50;;
35977;SDS011;22056;0.000;0.000;2023-09-19T06:05:06;4.43;;;0.70;;
35977;SDS011;22056;0.000;0.000;2023-09-19T06:10:05;1.55;;;0.70;;
35977;SDS011;22056;0.000;0.000;2023-09-19T06:12:32;2.58;;;0.55;;
35977;SDS011;22056;0.000;0.000;2023-09-19T06:15:00;1.23;;;0.60;;
35977;SDS011;22056;0.000;0.000;2023-09-19T06:17:26;2.85;;;0.70;;
35977;SDS011;22056;0.000;0.000;2023-09-19T06:19:53;1.05;;;0.60;;
35977;SDS011;22056;0.000;0.000;2023-09-19T06:22:20;2.88;;;0.60;;
35977;SDS011;22056;0.000;0.000;2023-09-19T06:24:47;1.38;;;0.70;;
35977;SDS011;22056;0.000;0.000;2023-09-19T06:27:13;2.97;;;0.70;;
35977;SDS011;22056;0.000;0.000;2023-09-19T06:29:39;5.10;;;0.80;;
35977;SDS011;22056;0.000;0.000;2023-09-19T06:32:09;1.08;;;0.60;;
35977;SDS011;22056;0.000;0.000;2023-09-19T06:34:35;1.92;;;0.50;;
35977;SDS011;22056;0.000;0.000;2023-09-19T06:37:03;3.33;;;0.60;;
35977;SDS011;22056;0.000;0.000;2023-09-19T06:39:31;3.33;;;0.70;;
35977;SDS011;22056;0.000;0.000;2023-09-19T06:41:57;2.90;;;0.68;;
35977;SDS011;22056;0.000;0.000;2023-09-19T06:44:26;1.27;;;0.50;;
35977;SDS011;22056;0.000;0.000;2023-09-19T06:46:54;1.25;;;0.70;;
35977;SDS011;22056;0.000;0.000;2023-09-19T06:49:21;2.22;;;0.75;;
35977;SDS011;22056;0.000;0.000;2023-09-19T06:51:47;1.65;;;0.80;;
35977;SDS011;22056;0.000;0.000;2023-09-19T06:54:14;3.15;;;0.75;;
35977;SDS011;22056;0.000;0.000;2023-09-19T06:56:43;1.90;;;0.57;;
35977;SDS011;22056;0.000;0.000;2023-09-19T06:59:09;1.83;;;0.80;;
35977;SDS011;22056;0.000;0.000;2023-09-19T07:01:35;2.67;;;0.60;;
35977;SDS011;22056;0.000;0.000;2023-09-19T07:04:02;3.38;;;0.85;;
35977;SDS011;22056;0.000;0.000;2023-09-19T07:06:29;3.25;;;0.70;;
35977;SDS011;22056;0.000;0.000;2023-09-19T07:08:55;3.00;;;0.70;;
35977;SDS011;22056;0.000;0.000;2023-09-19T07:11:21;2.05;;;0.80;;
35977;SDS011;22056;0.000;0.000;2023-09-19T07:13:48;2.50;;;0.82;;
35977;SDS011;22056;0.000;0.000;2023-09-19T07:16:15;1.98;;;0.70;;
35977;SDS011;22056;0.000;0.000;2023-09-19T07:18:52;2.38;;;0.68;;
35977;SDS011;22056;0.000;0.000;2023-09-19T07:21:21;1.80;;;0.63;;
35977;SDS011;22056;0.000;0.000;2023-09-19T07:23:47;2.25;;;0.50;;
35977;SDS011;22056;0.000;0.000;2023-09-19T07:26:15;0.85;;;0.50;;
35977;SDS011;22056;0.000;0.000;2023-09-19T07:28:41;1.88;;;0.80;;
35977;SDS011;22056;0.000;0.000;2023-09-19T07:31:07;3.35;;;0.70;;
35977;SDS011;22056;0.000;0.000;2023-09-19T07:33:34;1.92;;;0.70;;
35977;SDS011;22056;0.000;0.000;2023-09-19T07:36:01;3.17;;;1.05;;
35977;SDS011;22056;0.000;0.000;2023-09-19T07:38:27;2.42;;;0.80;;
35977;SDS011;22056;0.000;0.000;2023-09-19T07:40:53;1.50;;;0.70;;
35977;SDS011;22056;0.000;0.000;2023-09-19T07:43:25;3.30;;;0.68;;
35977;SDS011;22056;0.000;0.000;2023-09-19T07:45:52;1.08;;;0.80;;
35977;SDS011;22056;0.000;0.000;2023-09-19T07:48:18;2.40;;;0.70;;
35977;SDS011;22056;0.000;0.000;2023-09-19T07:50:44;1.40;;;0.60;;
35977;SDS011;22056;0.000;0.000;2023-09-19T07:53:10;2.45;;;0.95;;
35977;SDS011;22056;0.000;0.000;2023-09-19T07:55:38;1.25;;;0.50;;
35977;SDS011;22056;0.000;0.000;2023-09-19T07:58:06;4.00;;;0.73;;
35977;SDS011;22056;0.000;0.000;2023-09-19T08:00:32;1.65;;;0.50;;
35977;SDS011;22056;0.000;0.000;2023-09-19T08:03:00;3.45;;;0.98;;
35977;SDS011;22056;0.000;0.000;2023-09-19T08:05:26;3.30;;;0.77;;
35977;SDS011;22056;0.000;0.000;2023-09-19T08:07:53;1.00;;;0.60;;
35977;SDS011;22056;0.000;0.000;2023-09-19T08:10:21;2.78;;;0.85;;
35977;SDS011;22056;0.000;0.000;2023-09-19T08:12:47;1.27;;;0.70;;
35977;SDS011;22056;0.000;0.000;2023-09-19T08:15:21;1.27;;;0.70;;
35977;SDS011;22056;0.000;0.000;2023-09-19T08:17:47;3.10;;;0.88;;
35977;SDS011;22056;0.000;0.000;2023-09-19T08:20:14;3.30;;;1.10;;
35977;SDS011;22056;0.000;0.000;2023-09-19T08:22:50;1.25;;;0.65;;
35977;SDS011;22056;0.000;0.000;2023-09-19T08:25:20;1.80;;;0.70;;
35977;SDS011;22056;0.000;0.000;2023-09-19T08:27:47;1.67;;;0.60;;
35977;SDS011;22056;0.000;0.000;2023-09-19T08:30:14;2.28;;;0.60;;
35977;SDS011;22056;0.000;0.000;2023-09-19T08:32:40;4.25;;;0.77;;
35977;SDS011;22056;0.000;0.000;2023-09-19T08:35:11;3.75;;;0.95;;
35977;SDS011;22056;0.000;0.000;2023-09-19T08:37:37;2.85;;;0.93;;
35977;SDS011;22056;0.000;0.000;2023-09-19T08:40:03;2.33;;;0.93;;
35977;SDS011;22056;0.000;0.000;2023-09-19T08:42:46;1.42;;;0.60;;
35977;SDS011;22056;0.000;0.000;2023-09-19T08:45:13;2.30;;;0.82;;
35977;SDS011;22056;0.000;0.000;2023-09-19T08:47:42;3.28;;;1.17;;
35977;SDS011;22056;0.000;0.000;2023-09-19T08:50:14;2.00;;;0.63;;
35977;SDS011;22056;0.000;0.000;2023-09-19T08:52:42;2.45;;;0.65;;
35977;SDS011;22056;0.000;0.000;2023-09-19T08:55:10;1.75;;;0.57;;
35977;SDS011;22056;0.000;0.000;2023-09-19T08:57:37;2.58;;;0.65;;
35977;SDS011;22056;0.000;0.000;2023-09-19T09:00:08;3.47;;;0.82;;
35977;SDS011;22056;0.000;0.000;2023-09-19T09:02:36;3.38;;;0.70;;
35977;SDS011;22056;0.000;0.000;2023-09-19T09:05:03;2.13;;;0.77;;
35977;SDS011;22056;0.000;0.000;2023-09-19T09:07:30;3.30;;;0.65;;
35977;SDS011;22056;0.000;0.000;2023-09-19T09:09:59;1.20;;;0.50;;
35977;SDS011;22056;0.000;0.000;2023-09-19T09:12:26;1.95;;;0.70;;
35977;SDS011;22056;0.000;0.000;2023-09-19T09:14:52;2.10;;;0.73;;
35977;SDS011;22056;0.000;0.000;2023-09-19T09:17:18;2.20;;;0.63;;
35977;SDS011;22056;0.000;0.000;2023-09-19T09:19:45;2.40;;;0.85;;
35977;SDS011;22056;0.000;0.000;2023-09-19T09:22:12;3.17;;;0.63;;
35977;SDS011;22056;0.000;0.000;2023-09-19T09:24:51;1.48;;;0.65;;
35977;SDS011;22056;0.000;0.000;2023-09-19T09:27:23;3.00;;;0.65;;
35977;SDS011;22056;0.000;0.000;2023-09-19T09:29:50;2.35;;;0.80;;
35977;SDS011;22056;0.000;0.000;2023-09-19T09:32:25;3.67;;;0.82;;
35977;SDS011;22056;0.000;0.000;2023-09-19T09:37:17;3.13;;;0.93;;
35977;SDS011;22056;0.000;0.000;2023-09-19T09:48:00;1.85;;;0.80;;
35977;SDS011;22056;0.000;0.000;2023-09-19T09:50:39;6.03;;;1.02;;
35977;SDS011;22056;0.000;0.000;2023-09-19T09:53:28;3.95;;;0.70;;
35977;SDS011;22056;0.000;0.000;2023-09-19T10:01:02;3.25;;;1.00;;
35977;SDS011;22056;0.000;0.000;2023-09-19T10:06:11;1.77;;;0.80;;
35977;SDS011;22056;0.000;0.000;2023-09-19T10:11:46;3.58;;;0.93;;
35977;SDS011;22056;0.000;0.000;2023-09-19T10:14:16;2.70;;;0.70;;
35977;SDS011;22056;0.000;0.000;2023-09-19T10:16:48;3.17;;;0.90;;
35977;SDS011;22056;0.000;0.000;2023-09-19T10:19:28;3.53;;;0.93;;
35977;SDS011;22056;0.000;0.000;2023-09-19T10:21:55;2.40;;;0.77;;
35977;SDS011;22056;0.000;0.000;2023-09-19T10:24:22;2.05;;;0.93;;
35977;SDS011;22056;0.000;0.000;2023-09-19T10:26:51;2.05;;;0.82;;
35977;SDS011;22056;0.000;0.000;2023-09-19T10:29:19;2.47;;;0.70;;
35977;SDS011;22056;0.000;0.000;2023-09-19T10:31:47;3.53;;;0.85;;
35977;SDS011;22056;0.000;0.000;2023-09-19T10:34:14;3.25;;;0.90;;
35977;SDS011;22056;0.000;0.000;2023-09-19T10:36:42;3.85;;;0.80;;
35977;SDS011;22056;0.000;0.000;2023-09-19T10:39:10;2.33;;;0.90;;
35977;SDS011;22056;0.000;0.000;2023-09-19T10:41:37;3.70;;;1.05;;
35977;SDS011;22056;0.000;0.000;2023-09-19T10:44:04;3.63;;;0.70;;
35977;SDS011;22056;0.000;0.000;2023-09-19T10:46:34;2.30;;;0.85;;
35977;SDS011;22056;0.000;0.000;2023-09-19T10:49:00;3.97;;;0.90;;
35977;SDS011;22056;0.000;0.000;2023-09-19T10:51:29;3.00;;;0.88;;
35977;SDS011;22056;0.000;0.000;2023-09-19T10:54:05;2.90;;;0.93;;
35977;SDS011;22056;0.000;0.000;2023-09-19T10:56:33;2.30;;;0.80;;
35977;SDS011;22056;0.000;0.000;2023-09-19T10:59:15;6.18;;;1.15;;
35977;SDS011;22056;0.000;0.000;2023-09-19T11:04:31;2.70;;;0.98;;
35977;SDS011;22056;0.000;0.000;2023-09-19T11:15:00;4.80;;;1.20;;
35977;SDS011;22056;0.000;0.000;2023-09-19T11:30:38;8.52;;;1.10;;
35977;SDS011;22056;0.000;0.000;2023-09-19T11:36:09;5.70;;;1.45;;
35977;SDS011;22056;0.000;0.000;2023-09-19T11:46:34;4.63;;;1.80;;
35977;SDS011;22056;0.000;0.000;2023-09-19T11:49:28;3.78;;;1.08;;
35977;SDS011;22056;0.000;0.000;2023-09-19T11:52:01;3.88;;;1.00;;
35977;SDS011;22056;0.000;0.000;2023-09-19T11:54:31;3.80;;;0.90;;
35977;SDS011;22056;0.000;0.000;2023-09-19T11:56:58;4.85;;;0.90;;
35977;SDS011;22056;0.000;0.000;2023-09-19T11:59:24;5.60;;;1.20;;
35977;SDS011;22056;0.000;0.000;2023-09-19T12:01:59;3.00;;;1.08;;
35977;SDS011;22056;0.000;0.000;2023-09-19T12:04:39;2.13;;;0.90;;
35977;SDS011;22056;0.000;0.000;2023-09-19T12:07:08;4.95;;;0.95;;
35977;SDS011;22056;0.000;0.000;2023-09-19T12:10:02;7.25;;;1.38;;
35977;SDS011;22056;0.000;0.000;2023-09-19T12:12:27;3.45;;;0.90;;
35977;SDS011;22056;0.000;0.000;2023-09-19T12:14:53;5.90;;;1.15;;
35977;SDS011;22056;0.000;0.000;2023-09-19T12:17:22;6.38;;;1.25;;
35977;SDS011;22056;0.000;0.000;2023-09-19T12:19:49;8.57;;;1.45;;
35977;SDS011;22056;0.000;0.000;2023-09-19T12:22:16;5.82;;;1.45;;
35977;SDS011;22056;0.000;0.000;2023-09-19T12:24:44;3.50;;;0.93;;
35977;SDS011;22056;0.000;0.000;2023-09-19T12:27:12;3.00;;;1.00;;
35977;SDS011;22056;0.000;0.000;2023-09-19T12:29:47;5.90;;;1.35;;
35977;SDS011;22056;0.000;0.000;2023-09-19T12:32:14;5.68;;;1.15;;
35977;SDS011;22056;0.000;0.000;2023-09-19T12:34:52;5.15;;;1.10;;
35977;SDS011;22056;0.000;0.000;2023-09-19T12:37:19;6.07;;;0.98;;
35977;SDS011;22056;0.000;0.000;2023-09-19T12:39:47;5.93;;;1.40;;
35977;SDS011;22056;0.000;0.000;2023-09-19T12:42:17;6.00;;;1.20;;
35977;SDS011;22056;0.000;0.000;2023-09-19T12:44:47;7.82;;;1.05;;
35977;SDS011;22056;0.000;0.000;2023-09-19T12:47:17;7.82;;;1.40;;
35977;SDS011;22056;0.000;0.000;2023-09-19T12:50:21;5.03;;;1.10;;
35977;SDS011;22056;0.000;0.000;2023-09-19T12:55:31;5.25;;;1.75;;
35977;SDS011;22056;0.000;0.000;2023-09-19T13:00:36;5.82;;;1.15;;
35977;SDS011;22056;0.000;0.000;2023-09-19T13:08:17;6.38;;;1.23;;
35977;SDS011;22056;0.000;0.000;2023-09-19T13:11:04;4.47;;;1.17;;
35977;SDS011;22056;0.000;0.000;2023-09-19T13:13:47;3.97;;;1.00;;
35977;SDS011;22056;0.000;0.000;2023-09-19T13:16:16;7.88;;;1.40;;
35977;SDS011;22056;0.000;0.000;2023-09-19T13:18:48;8.18;;;1.45;;
35977;SDS011;22056;0.000;0.000;2023-09-19T13:21:17;5.25;;;1.10;;
35977;SDS011;22056;0.000;0.000;2023-09-19T13:23:50;6.65;;;1.00;;
35977;SDS011;22056;0.000;0.000;2023-09-19T13:26:18;4.68;;;1.20;;
35977;SDS011;22056;0.000;0.000;2023-09-19T13:28:45;5.68;;;0.95;;
35977;SDS011;22056;0.000;0.000;2023-09-19T13:31:13;6.60;;;1.08;;
35977;SDS011;22056;0.000;0.000;2023-09-19T13:33:42;5.18;;;1.02;;
35977;SDS011;22056;0.000;0.000;2023-09-19T13:36:10;7.70;;;1.00;;
35977;SDS011;22056;0.000;0.000;2023-09-19T13:38:37;4.90;;;1.60;;
35977;SDS011;22056;0.000;0.000;2023-09-19T13:41:03;9.88;;;1.15;;
35977;SDS011;22056;0.000;0.000;2023-09-19T13:43:29;6.53;;;1.25;;
35977;SDS011;22056;0.000;0.000;2023-09-19T13:45:55;5.97;;;1.10;;
35977;SDS011;22056;0.000;0.000;2023-09-19T13:48:22;6.35;;;1.10;;
35977;SDS011;22056;0.000;0.000;2023-09-19T13:50:49;5.00;;;1.05;;
35977;SDS011;22056;0.000;0.000;2023-09-19T13:53:15;6.05;;;1.05;;
35977;SDS011;22056;0.000;0.000;2023-09-19T13:55:42;8.30;;;1.40;;
35977;SDS011;22056;0.000;0.000;2023-09-19T13:58:08;4.18;;;0.95;;
35977;SDS011;22056;0.000;0.000;2023-09-19T14:00:36;5.97;;;0.90;;
35977;SDS011;22056;0.000;0.000;2023-09-19T14:03:03;10.15;;;1.60;;
35977;SDS011;22056;0.000;0.000;2023-09-19T14:05:30;9.68;;;1.20;;
35977;SDS011;22056;0.000;0.000;2023-09-19T14:07:56;7.25;;;1.23;;
35977;SDS011;22056;0.000;0.000;2023-09-19T14:10:24;3.97;;;1.10;;
35977;SDS011;22056;0.000;0.000;2023-09-19T14:12:52;7.03;;;1.17;;
35977;SDS011;22056;0.000;0.000;2023-09-19T14:15:19;4.45;;;1.08;;
35977;SDS011;22056;0.000;0.000;2023-09-19T14:17:45;4.63;;;0.95;;
35977;SDS011;22056;0.000;0.000;2023-09-19T14:20:11;6.18;;;1.10;;
35977;SDS011;22056;0.000;0.000;2023-09-19T14:22:37;3.30;;;0.80;;
35977;SDS011;22056;0.000;0.000;2023-09-19T14:25:04;4.95;;;0.90;;
35977;SDS011;22056;0.000;0.000;2023-09-19T14:27:31;7.75;;;1.48;;
35977;SDS011;22056;0.000;0.000;2023-09-19T14:29:57;4.20;;;1.10;;
35977;SDS011;22056;0.000;0.000;2023-09-19T14:32:23;4.78;;;0.90;;
35977;SDS011;22056;0.000;0.000;2023-09-19T14:34:49;3.45;;;0.85;;
35977;SDS011;22056;0.000;0.000;2023-09-19T14:37:15;6.53;;;1.20;;
35977;SDS011;22056;0.000;0.000;2023-09-19T14:39:41;7.97;;;1.20;;
35977;SDS011;22056;0.000;0.000;2023-09-19T14:42:10;7.60;;;1.25;;
35977;SDS011;22056;0.000;0.000;2023-09-19T14:44:37;3.42;;;0.80;;
35977;SDS011;22056;0.000;0.000;2023-09-19T14:47:03;6.43;;;1.13;;
35977;SDS011;22056;0.000;0.000;2023-09-19T14:49:33;6.43;;;0.82;;
35977;SDS011;22056;0.000;0.000;2023-09-19T14:51:59;3.28;;;0.65;;
35977;SDS011;22056;0.000;0.000;2023-09-19T14:54:29;4.22;;;0.80;;
35977;SDS011;22056;0.000;0.000;2023-09-19T14:56:56;5.93;;;1.00;;
35977;SDS011;22056;0.000;0.000;2023-09-19T14:59:32;7.72;;;1.25;;
35977;SDS011;22056;0.000;0.000;2023-09-19T15:04:28;5.57;;;0.90;;
35977;SDS011;22056;0.000;0.000;2023-09-19T15:06:55;8.73;;;1.55;;
35977;SDS011;22056;0.000;0.000;2023-09-19T15:09:21;3.80;;;0.73;;
35977;SDS011;22056;0.000;0.000;2023-09-19T15:11:54;3.95;;;1.02;;
35977;SDS011;22056;0.000;0.000;2023-09-19T15:14:21;5.05;;;0.80;;
35977;SDS011;22056;0.000;0.000;2023-09-19T15:16:47;4.18;;;0.95;;
35977;SDS011;22056;0.000;0.000;2023-09-19T15:19:14;5.88;;;0.82;;
35977;SDS011;22056;0.000;0.000;2023-09-19T15:21:40;4.47;;;0.90;;
35977;SDS011;22056;0.000;0.000;2023-09-19T15:24:07;2.03;;;0.80;;
35977;SDS011;22056;0.000;0.000;2023-09-19T15:26:36;3.67;;;0.80;;
35977;SDS011;22056;0.000;0.000;2023-09-19T15:29:08;4.75;;;0.98;;
35977;SDS011;22056;0.000;0.000;2023-09-19T15:31:35;6.90;;;0.95;;
35977;SDS011;22056;0.000;0.000;2023-09-19T15:34:01;4.30;;;1.13;;
35977;SDS011;22056;0.000;0.000;2023-09-19T15:36:28;5.43;;;0.93;;
35977;SDS011;22056;0.000;0.000;2023-09-19T15:39:01;3.30;;;0.90;;
35977;SDS011;22056;0.000;0.000;2023-09-19T15:43:55;3.47;;;0.90;;
35977;SDS011;22056;0.000;0.000;2023-09-19T15:46:22;2.13;;;0.70;;
35977;SDS011;22056;0.000;0.000;2023-09-19T15:48:48;4.60;;;0.90;;
35977;SDS011;22056;0.000;0.000;2023-09-19T15:51:15;4.93;;;0.80;;
35977;SDS011;22056;0.000;0.000;2023-09-19T15:56:09;3.90;;;0.85;;
35977;SDS011;22056;0.000;0.000;2023-09-19T15:58:36;2.53;;;0.75;;
35977;SDS011;22056;0.000;0.000;2023-09-19T16:01:13;6.38;;;0.77;;
35977;SDS011;22056;0.000;0.000;2023-09-19T16:03:40;3.55;;;0.70;;
35977;SDS011;22056;0.000;0.000;2023-09-19T16:06:19;5.35;;;0.93;;
35977;SDS011;22056;0.000;0.000;2023-09-19T16:08:48;3.15;;;0.68;;
35977;SDS011;22056;0.000;0.000;2023-09-19T16:11:15;3.65;;;0.90;;
35977;SDS011;22056;0.000;0.000;2023-09-19T16:13:42;3.95;;;0.73;;
35977;SDS011;22056;0.000;0.000;2023-09-19T16:16:11;2.53;;;0.80;;
35977;SDS011;22056;0.000;0.000;2023-09-19T16:21:36;4.97;;;0.90;;
35977;SDS011;22056;0.000;0.000;2023-09-19T16:24:02;3.83;;;0.82;;
35977;SDS011;22056;0.000;0.000;2023-09-19T16:26:29;2.95;;;0.68;;
35977;SDS011;22056;0.000;0.000;2023-09-19T16:28:55;2.38;;;0.82;;
35977;SDS011;22056;0.000;0.000;2023-09-19T16:31:25;2.13;;;0.70;;
35977;SDS011;22056;0.000;0.000;2023-09-19T16:33:53;5.38;;;0.90;;
35977;SDS011;22056;0.000;0.000;2023-09-19T16:36:20;4.03;;;0.90;;
35977;SDS011;22056;0.000;0.000;2023-09-19T16:38:47;3.83;;;0.90;;
35977;SDS011;22056;0.000;0.000;2023-09-19T16:41:14;2.20;;;0.68;;
35977;SDS011;22056;0.000;0.000;2023-09-19T16:43:41;3.15;;;0.68;;
35977;SDS011;22056;0.000;0.000;2023-09-19T16:46:09;1.88;;;0.60;;